createdAt,value
2022-08-09T00:00:04.545Z,18.36
2022-08-09T00:02:34.132Z,18.30
2022-08-09T00:06:15.244Z,18.34
2022-08-09T00:07:48.618Z,18.30
2022-08-09T00:10:21.174Z,18.27
2022-08-09T00:12:51.681Z,18.06
2022-08-09T00:15:26.722Z,18.11
2022-08-09T00:18:11.196Z,18.09
2022-08-09T00:20:42.503Z,18.11
2022-08-09T00:23:55.160Z,18.03
2022-08-09T00:26:07.023Z,17.99
2022-08-09T00:28:35.185Z,17.98
2022-08-09T00:31:09.129Z,17.92
2022-08-09T00:33:53.980Z,17.92
2022-08-09T00:36:22.323Z,17.62
2022-08-09T00:38:53.987Z,17.72
2022-08-09T00:44:16.858Z,17.73
2022-08-09T00:44:25.746Z,17.75
2022-08-09T00:47:04.564Z,17.65
2022-08-09T00:49:36.516Z,17.72
2022-08-09T00:52:05.496Z,17.38
2022-08-09T00:54:36.484Z,17.56
2022-08-09T00:57:09.026Z,17.61
2022-08-09T00:59:46.883Z,17.61
2022-08-09T01:02:21.843Z,17.57
2022-08-09T01:04:56.307Z,17.53
2022-08-09T01:07:37.618Z,17.54
2022-08-09T01:10:28.931Z,17.48
2022-08-09T01:12:57.049Z,17.49
2022-08-09T01:15:27.876Z,17.42
2022-08-09T01:18:14.378Z,17.39
2022-08-09T01:20:50.233Z,17.29
2022-08-09T01:24:02.425Z,17.27
2022-08-09T01:26:59.240Z,17.26
2022-08-09T01:29:41.053Z,17.26
2022-08-09T01:32:31.187Z,17.26
2022-08-09T01:35:38.810Z,17.21
2022-08-09T01:38:10.695Z,17.19
2022-08-09T01:40:52.703Z,16.97
2022-08-09T01:43:50.846Z,17.01
2022-08-09T01:46:26.811Z,16.91
2022-08-09T01:48:56.884Z,16.81
2022-08-09T01:51:26.217Z,16.83
2022-08-09T01:53:57.927Z,16.83
2022-08-09T01:56:27.007Z,16.67
2022-08-09T01:58:56.704Z,16.75
2022-08-09T02:01:58.604Z,16.80
2022-08-09T02:04:14.758Z,16.70
2022-08-09T02:07:01.982Z,16.63
2022-08-09T02:09:42.061Z,16.63
2022-08-09T02:12:13.463Z,16.49
2022-08-09T02:14:47.950Z,16.50
2022-08-09T02:17:59.947Z,16.52
2022-08-09T02:20:08.578Z,16.48
2022-08-09T02:22:52.506Z,16.50
2022-08-09T02:25:23.985Z,16.46
2022-08-09T02:28:03.825Z,16.32
2022-08-09T02:30:35.676Z,16.39
2022-08-09T02:33:03.280Z,16.45
2022-08-09T02:35:46.350Z,16.39
2022-08-09T02:38:29.646Z,16.34
2022-08-09T02:41:01.982Z,16.34
2022-08-09T02:43:42.493Z,16.21
2022-08-09T02:46:19.464Z,15.98
2022-08-09T02:48:47.713Z,16.10
2022-08-09T02:51:22.038Z,16.08
2022-08-09T02:54:00.891Z,16.08
2022-08-09T02:56:30.391Z,16.01
2022-08-09T02:58:57.533Z,16.07
2022-08-09T03:01:29.381Z,16.11
2022-08-09T03:04:19.158Z,16.04
2022-08-09T03:06:48.876Z,15.94
2022-08-09T03:09:17.683Z,15.93
2022-08-09T03:12:06.598Z,15.72
2022-08-09T03:14:32.134Z,15.87
2022-08-09T03:17:01.545Z,15.99
2022-08-09T03:19:58.370Z,15.74
2022-08-09T03:22:25.154Z,15.85
2022-08-09T03:25:06.371Z,15.90
2022-08-09T03:27:52.662Z,15.82
2022-08-09T03:30:29.903Z,15.71
2022-08-09T03:33:05.637Z,15.79
2022-08-09T03:36:11.087Z,15.60
2022-08-09T03:38:28.945Z,15.79
2022-08-09T03:40:58.256Z,15.83
2022-08-09T03:43:25.095Z,15.70
2022-08-09T03:46:04.116Z,15.64
2022-08-09T03:48:51.815Z,15.44
2022-08-09T03:51:44.435Z,15.58
2022-08-09T03:54:10.728Z,15.74
2022-08-09T03:56:41.310Z,15.68
2022-08-09T03:59:21.185Z,15.76
2022-08-09T04:01:56.831Z,15.69
2022-08-09T04:04:32.636Z,15.64
2022-08-09T04:07:05.491Z,15.63
2022-08-09T04:09:48.111Z,15.56
2022-08-09T04:12:33.623Z,15.51
2022-08-09T04:15:01.841Z,15.39
2022-08-09T04:17:29.827Z,15.48
2022-08-09T04:19:56.789Z,15.41
2022-08-09T04:22:23.685Z,15.42
2022-08-09T04:24:50.577Z,15.37
2022-08-09T04:27:21.894Z,15.36
2022-08-09T04:29:49.853Z,15.31
2022-08-09T04:32:31.326Z,15.39
2022-08-09T04:35:01.461Z,15.36
2022-08-09T04:37:45.392Z,15.31
2022-08-09T04:40:19.263Z,15.12
2022-08-09T04:42:55.624Z,15.11
2022-08-09T04:45:23.685Z,15.08
2022-08-09T04:48:00.219Z,15.17
2022-08-09T04:50:35.027Z,15.26
2022-08-09T04:53:11.540Z,15.14
2022-08-09T04:55:57.795Z,15.08
2022-08-09T04:58:31.698Z,15.11
2022-08-09T05:01:00.197Z,15.21
2022-08-09T05:03:40.682Z,15.06
2022-08-09T05:06:09.676Z,15.16
2022-08-09T05:08:38.235Z,15.15
2022-08-09T05:11:07.650Z,15.12
2022-08-09T05:13:38.464Z,15.10
2022-08-09T05:16:06.805Z,15.04
2022-08-09T05:18:42.208Z,15.10
2022-08-09T05:21:24.345Z,15.19
2022-08-09T05:23:59.736Z,15.17
2022-08-09T05:26:37.007Z,15.12
2022-08-09T05:29:21.854Z,15.13
2022-08-09T05:31:56.879Z,15.08
2022-08-09T05:34:31.030Z,15.18
2022-08-09T05:37:05.979Z,15.21
2022-08-09T05:39:36.223Z,15.03
2022-08-09T05:42:10.230Z,15.13
2022-08-09T05:44:44.691Z,15.10
2022-08-09T05:47:14.270Z,15.25
2022-08-09T05:50:26.786Z,15.19
2022-08-09T05:52:27.689Z,15.24
2022-08-09T05:54:58.239Z,15.18
2022-08-09T05:57:55.424Z,15.20
2022-08-09T06:00:19.935Z,15.19
2022-08-09T06:02:47.013Z,15.23
2022-08-09T06:05:13.713Z,15.13
2022-08-09T06:07:40.307Z,15.21
2022-08-09T06:10:15.904Z,15.14
2022-08-09T06:12:44.658Z,15.23
2022-08-09T06:15:17.512Z,15.28
2022-08-09T06:17:44.011Z,15.30
2022-08-09T06:20:13.361Z,15.32
2022-08-09T06:22:45.613Z,15.45
2022-08-09T06:25:12.482Z,15.49
2022-08-09T06:27:51.833Z,15.44
2022-08-09T06:30:18.921Z,15.49
2022-08-09T06:33:13.539Z,15.51
2022-08-09T06:35:56.572Z,15.64
2022-08-09T06:38:19.755Z,15.62
2022-08-09T06:40:58.690Z,15.71
2022-08-09T06:43:26.925Z,15.69
2022-08-09T06:46:07.567Z,15.70
2022-08-09T06:48:42.818Z,15.79
2022-08-09T06:51:11.082Z,15.83
2022-08-09T06:53:38.918Z,15.90
2022-08-09T06:56:09.248Z,15.98
2022-08-09T07:00:46.479Z,15.95
2022-08-09T07:01:24.294Z,16.08
2022-08-09T07:03:56.721Z,16.11
2022-08-09T07:06:28.028Z,16.16
2022-08-09T07:08:56.482Z,16.21
2022-08-09T07:11:25.871Z,16.36
2022-08-09T07:14:04.762Z,16.29
2022-08-09T07:16:41.446Z,16.32
2022-08-09T07:19:15.645Z,16.41
2022-08-09T07:21:55.789Z,16.48
2022-08-09T07:24:39.884Z,16.58
2022-08-09T07:27:26.763Z,16.83
2022-08-09T07:29:58.683Z,16.82
2022-08-09T07:32:33.528Z,16.88
2022-08-09T07:35:08.022Z,16.86
2022-08-09T07:37:43.520Z,17.02
2022-08-09T07:40:17.032Z,17.11
2022-08-09T07:42:56.940Z,17.25
2022-08-09T07:45:39.851Z,17.65
2022-08-09T07:48:28.365Z,18.59
2022-08-09T07:51:09.581Z,19.46
2022-08-09T07:54:04.474Z,19.52
2022-08-09T07:56:31.100Z,20.55
2022-08-09T07:58:59.401Z,20.78
2022-08-09T08:01:33.090Z,21.03
2022-08-09T08:04:02.480Z,21.74
2022-08-09T08:06:32.141Z,21.65
2022-08-09T08:09:04.444Z,22.77
2022-08-09T08:12:27.292Z,22.17
2022-08-09T08:14:18.548Z,22.70
2022-08-09T08:17:00.477Z,22.78
2022-08-09T08:19:31.818Z,23.24
2022-08-09T08:21:58.461Z,24.18
2022-08-09T08:24:34.261Z,24.80
2022-08-09T08:27:17.194Z,24.93
2022-08-09T08:29:49.951Z,25.13
2022-08-09T08:32:24.263Z,24.60
2022-08-09T08:34:58.793Z,25.36
2022-08-09T08:37:41.956Z,25.97
2022-08-09T08:40:14.362Z,26.13
2022-08-09T08:42:47.424Z,26.40
2022-08-09T08:45:16.661Z,26.30
2022-08-09T08:47:46.129Z,26.48
2022-08-09T08:50:18.315Z,26.45
2022-08-09T08:52:58.103Z,26.47
2022-08-09T08:55:26.837Z,26.87
2022-08-09T08:57:57.661Z,27.07
2022-08-09T09:00:30.396Z,27.43
2022-08-09T09:03:11.694Z,27.79
2022-08-09T09:05:59.593Z,27.74
2022-08-09T09:08:40.373Z,27.89
2022-08-09T09:11:13.778Z,27.69
2022-08-09T09:13:55.089Z,27.60
2022-08-09T09:16:32.438Z,27.76
2022-08-09T09:22:12.499Z,28.53
2022-08-09T09:24:43.292Z,28.58
2022-08-09T09:28:05.699Z,28.45
2022-08-09T09:30:28.867Z,28.68
2022-08-09T09:33:15.576Z,28.67
2022-08-09T09:36:20.841Z,29.36
2022-08-09T09:38:57.151Z,29.65
2022-08-09T09:41:24.049Z,29.27
2022-08-09T09:44:11.548Z,29.66
2022-08-09T09:46:45.654Z,29.25
2022-08-09T09:49:49.743Z,29.62
2022-08-09T09:52:33.412Z,29.66
2022-08-09T09:55:16.356Z,29.04
2022-08-09T09:58:16.498Z,29.63
2022-08-09T10:00:55.766Z,29.30
2022-08-09T10:03:58.084Z,29.98
2022-08-09T10:06:32.145Z,30.03
2022-08-09T10:09:02.887Z,29.30
2022-08-09T10:12:01.376Z,29.33
2022-08-09T10:14:27.346Z,29.47
2022-08-09T10:17:05.392Z,29.77
2022-08-09T10:19:45.833Z,30.05
2022-08-09T10:22:12.928Z,30.23
2022-08-09T10:24:40.404Z,30.30
2022-08-09T10:27:10.343Z,30.21
2022-08-09T10:30:43.934Z,30.35
2022-08-09T10:32:42.453Z,30.47
2022-08-09T10:35:10.706Z,30.22
2022-08-09T10:37:40.184Z,29.47
2022-08-09T10:40:12.128Z,29.27
2022-08-09T10:43:00.512Z,29.96
2022-08-09T10:45:31.799Z,29.62
2022-08-09T10:48:26.132Z,29.65
2022-08-09T10:51:09.370Z,30.39
2022-08-09T10:53:39.532Z,29.90
2022-08-09T10:56:22.962Z,30.61
2022-08-09T10:58:54.642Z,30.74
2022-08-09T11:03:14.870Z,30.86
2022-08-09T11:04:31.645Z,31.00
2022-08-09T11:07:00.331Z,30.83
2022-08-09T11:09:41.427Z,30.76
2022-08-09T11:12:29.709Z,30.71
2022-08-09T11:14:59.046Z,30.76
2022-08-09T11:17:26.307Z,31.13
2022-08-09T11:20:19.750Z,30.72
2022-08-09T11:22:55.450Z,30.82
2022-08-09T11:25:45.260Z,31.01
2022-08-09T11:28:38.721Z,31.38
2022-08-09T11:31:48.794Z,31.09
2022-08-09T11:34:31.778Z,31.21
2022-08-09T11:36:59.808Z,30.69
2022-08-09T11:39:26.430Z,30.85
2022-08-09T11:42:14.541Z,30.87
2022-08-09T11:44:44.265Z,30.29
2022-08-09T11:47:11.110Z,31.07
2022-08-09T11:50:55.201Z,31.21
2022-08-09T11:53:15.610Z,31.07
2022-08-09T11:55:53.587Z,31.57
2022-08-09T11:58:32.258Z,31.68
2022-08-09T12:01:37.462Z,32.05
2022-08-09T12:04:00.713Z,31.99
2022-08-09T12:06:32.555Z,31.58
2022-08-09T12:09:19.745Z,32.19
2022-08-09T12:12:04.109Z,32.39
2022-08-09T12:14:40.486Z,32.17
2022-08-09T12:17:28.152Z,32.24
2022-08-09T12:20:22.190Z,32.03
2022-08-09T12:22:56.406Z,32.44
2022-08-09T12:25:36.540Z,32.15
2022-08-09T12:28:59.335Z,32.03
2022-08-09T12:30:59.001Z,32.18
2022-08-09T12:33:35.274Z,32.66
2022-08-09T12:36:27.674Z,32.76
2022-08-09T12:38:59.448Z,32.58
2022-08-09T12:41:38.102Z,32.67
2022-08-09T12:44:10.216Z,33.18
2022-08-09T12:46:43.336Z,32.26
2022-08-09T12:49:16.156Z,32.51
2022-08-09T12:52:02.066Z,32.98
2022-08-09T12:54:29.583Z,33.42
2022-08-09T12:56:58.915Z,33.37
2022-08-09T12:59:39.760Z,32.53
2022-08-09T13:02:17.558Z,32.77
2022-08-09T13:05:00.579Z,33.57
2022-08-09T13:07:51.049Z,33.98
2022-08-09T13:10:16.695Z,33.50
2022-08-09T13:13:08.917Z,33.56
2022-08-09T13:15:35.688Z,33.57
2022-08-09T13:18:06.078Z,33.01
2022-08-09T13:20:37.384Z,34.07
2022-08-09T13:24:16.560Z,34.16
2022-08-09T13:26:03.547Z,34.26
2022-08-09T13:28:34.531Z,34.58
2022-08-09T13:32:13.680Z,34.67
2022-08-09T13:33:53.683Z,34.13
2022-08-09T13:36:37.504Z,34.73
2022-08-09T13:41:50.365Z,34.48
2022-08-09T13:42:04.798Z,34.36
2022-08-09T13:44:33.429Z,34.45
2022-08-09T13:47:28.787Z,35.28
2022-08-09T13:49:56.105Z,34.26
2022-08-09T13:52:24.971Z,33.38
2022-08-09T13:54:59.454Z,34.15
2022-08-09T13:57:37.518Z,33.44
2022-08-09T14:00:09.195Z,34.15
2022-08-09T14:02:42.191Z,34.05
2022-08-09T14:05:59.172Z,33.97
2022-08-09T14:08:10.456Z,33.92
2022-08-09T14:10:46.180Z,34.62
2022-08-09T14:13:27.984Z,34.61
2022-08-09T14:16:10.467Z,35.09
2022-08-09T14:18:43.153Z,34.15
2022-08-09T14:21:17.489Z,32.72
2022-08-09T14:23:53.489Z,33.40
2022-08-09T14:26:30.043Z,34.47
2022-08-09T14:29:07.931Z,34.56
2022-08-09T14:31:53.998Z,34.32
2022-08-09T14:34:27.304Z,32.81
2022-08-09T14:36:59.077Z,31.86
2022-08-09T14:39:46.134Z,33.31
2022-08-09T14:42:12.288Z,33.26
2022-08-09T14:44:48.638Z,34.09
2022-08-09T14:47:39.697Z,33.54
2022-08-09T14:50:02.737Z,33.97
2022-08-09T14:52:29.428Z,34.00
2022-08-09T14:54:56.110Z,34.54
2022-08-09T14:57:23.315Z,34.68
2022-08-09T14:59:58.455Z,34.86
2022-08-09T15:02:24.987Z,33.33
2022-08-09T15:04:51.553Z,33.83
2022-08-09T15:07:18.174Z,34.31
2022-08-09T15:10:03.603Z,34.81
2022-08-09T15:12:32.441Z,32.76
2022-08-09T15:14:59.184Z,33.13
2022-08-09T15:17:26.163Z,33.74
2022-08-09T15:19:59.025Z,33.42
2022-08-09T15:22:26.491Z,34.20
2022-08-09T15:24:53.637Z,33.87
2022-08-09T15:27:20.955Z,34.15
2022-08-09T15:30:55.521Z,34.34
2022-08-09T15:32:34.378Z,34.31
2022-08-09T15:35:01.327Z,35.08
2022-08-09T15:37:56.116Z,34.17
2022-08-09T15:40:31.952Z,34.20
2022-08-09T15:43:00.475Z,34.22
2022-08-09T15:45:29.507Z,33.99
2022-08-09T15:48:05.531Z,34.52
2022-08-09T15:50:39.320Z,34.50
2022-08-09T15:53:18.782Z,33.35
2022-08-09T15:56:21.040Z,34.46
2022-08-09T15:58:44.528Z,34.95
2022-08-09T16:01:13.148Z,33.60
2022-08-09T16:03:41.480Z,34.10
2022-08-09T16:06:32.414Z,34.92
2022-08-09T16:08:59.160Z,33.44
2022-08-09T16:11:30.736Z,34.81
2022-08-09T16:14:04.835Z,33.92
2022-08-09T16:16:37.331Z,34.24
2022-08-09T16:19:09.944Z,34.21
2022-08-09T16:21:40.813Z,33.90
2022-08-09T16:24:20.031Z,35.32
2022-08-09T16:26:56.790Z,35.54
2022-08-09T16:29:37.956Z,35.42
2022-08-09T16:32:34.463Z,35.22
2022-08-09T16:34:58.313Z,35.32
2022-08-09T16:37:53.129Z,35.71
2022-08-09T16:40:13.689Z,34.30
2022-08-09T16:42:45.086Z,34.79
2022-08-09T16:45:14.578Z,35.38
2022-08-09T16:48:41.896Z,35.12
2022-08-09T16:50:33.814Z,34.68
2022-08-09T16:53:02.142Z,34.87
2022-08-09T16:55:31.524Z,35.61
2022-08-09T16:58:16.961Z,35.41
2022-08-09T17:00:44.046Z,35.66
2022-08-09T17:03:21.974Z,35.26
2022-08-09T17:06:07.686Z,35.02
2022-08-09T17:09:00.015Z,34.01
2022-08-09T17:11:40.937Z,34.90
2022-08-09T17:14:26.165Z,35.34
2022-08-09T17:16:55.944Z,35.52
2022-08-09T17:19:22.445Z,34.07
2022-08-09T17:21:54.471Z,34.75
2022-08-09T17:24:30.343Z,34.89
2022-08-09T17:26:58.266Z,33.78
2022-08-09T17:29:31.622Z,34.13
2022-08-09T17:32:05.586Z,33.40
2022-08-09T17:35:07.453Z,34.66
2022-08-09T17:37:21.160Z,34.83
2022-08-09T17:39:52.168Z,33.77
2022-08-09T17:42:42.181Z,34.08
2022-08-09T17:45:15.839Z,34.36
2022-08-09T17:47:55.491Z,34.32
2022-08-09T17:50:37.289Z,34.27
2022-08-09T17:53:19.703Z,33.47
2022-08-09T17:55:51.938Z,33.84
2022-08-09T17:58:21.998Z,33.96
2022-08-09T18:00:54.999Z,32.80
2022-08-09T18:03:24.103Z,33.16
2022-08-09T18:05:54.084Z,33.21
2022-08-09T18:08:22.157Z,33.17
2022-08-09T18:11:00.881Z,32.79
2022-08-09T18:13:54.436Z,32.77
2022-08-09T18:16:30.205Z,32.00
2022-08-09T18:19:03.856Z,32.69
2022-08-09T18:21:41.437Z,32.85
2022-08-09T18:24:14.601Z,32.02
2022-08-09T18:26:46.955Z,31.57
2022-08-09T18:30:39.810Z,32.16
2022-08-09T18:32:04.071Z,32.12
2022-08-09T18:34:35.198Z,31.94
2022-08-09T18:37:03.915Z,31.83
2022-08-09T18:39:32.496Z,31.46
2022-08-09T18:42:08.909Z,31.51
2022-08-09T18:44:37.084Z,31.33
2022-08-09T18:47:09.849Z,31.40
2022-08-09T18:49:46.595Z,31.29
2022-08-09T18:52:16.036Z,31.03
2022-08-09T18:54:49.828Z,31.03
2022-08-09T18:57:22.395Z,29.79
2022-08-09T18:59:57.834Z,30.29
2022-08-09T19:02:31.739Z,30.39
2022-08-09T19:05:14.630Z,30.29
2022-08-09T19:08:04.769Z,30.16
2022-08-09T19:10:37.387Z,30.06
2022-08-09T19:13:19.262Z,29.94
2022-08-09T19:15:50.123Z,29.74
2022-08-09T19:18:34.292Z,29.65
2022-08-09T19:21:09.498Z,29.54
2022-08-09T19:24:32.712Z,29.40
2022-08-09T19:26:34.832Z,29.29
2022-08-09T19:29:09.667Z,29.10
2022-08-09T19:31:45.336Z,28.96
2022-08-09T19:34:21.839Z,28.81
2022-08-09T19:36:51.053Z,28.62
2022-08-09T19:39:17.857Z,28.53
2022-08-09T19:41:50.592Z,28.42
2022-08-09T19:44:22.279Z,28.33
2022-08-09T19:46:53.488Z,28.22
2022-08-09T19:50:06.765Z,27.87
2022-08-09T19:52:08.609Z,27.84
2022-08-09T19:54:35.385Z,27.75
2022-08-09T19:57:02.771Z,27.64
2022-08-09T19:59:58.343Z,27.55
2022-08-09T20:04:11.549Z,27.46
2022-08-09T20:05:11.545Z,27.28
2022-08-09T20:07:59.644Z,27.05
2022-08-09T20:10:36.528Z,27.01
2022-08-09T20:13:06.188Z,26.88
2022-08-09T20:16:38.603Z,26.79
2022-08-09T20:18:22.122Z,26.63
2022-08-09T20:20:50.538Z,26.53
2022-08-09T20:23:21.009Z,26.49
2022-08-09T20:25:52.981Z,26.33
2022-08-09T20:28:27.699Z,26.09
2022-08-09T20:31:00.778Z,25.94
2022-08-09T20:33:29.534Z,25.88
2022-08-09T20:36:08.460Z,25.66
2022-08-09T20:39:02.591Z,25.53
2022-08-09T20:41:32.005Z,25.46
2022-08-09T20:44:03.506Z,24.85
2022-08-09T20:46:42.815Z,25.00
2022-08-09T20:49:12.406Z,24.96
2022-08-09T20:51:41.610Z,24.92
2022-08-09T20:54:12.824Z,24.88
2022-08-09T20:56:43.760Z,24.49
2022-08-09T20:59:14.119Z,24.50
2022-08-09T21:01:50.871Z,24.32
2022-08-09T21:05:53.592Z,23.95
2022-08-09T21:07:12.254Z,24.20
2022-08-09T21:09:45.890Z,24.12
2022-08-09T21:12:23.095Z,24.15
2022-08-09T21:14:49.743Z,24.01
2022-08-09T21:18:11.431Z,24.07
2022-08-09T21:20:18.109Z,23.96
2022-08-09T21:22:52.660Z,23.85
2022-08-09T21:25:39.530Z,23.85
2022-08-09T21:28:11.784Z,23.72
2022-08-09T21:30:40.752Z,23.64
2022-08-09T21:33:08.601Z,23.56
2022-08-09T21:35:40.904Z,23.25
2022-08-09T21:38:30.859Z,23.24
2022-08-09T21:40:58.361Z,23.14
2022-08-09T21:43:56.148Z,23.12
2022-08-09T21:46:12.409Z,22.66
2022-08-09T21:48:42.622Z,22.74
2022-08-09T21:51:14.243Z,22.82
2022-08-09T21:53:54.735Z,22.79
2022-08-09T21:56:42.786Z,22.68
2022-08-09T21:59:09.330Z,22.56
2022-08-09T22:01:58.710Z,22.24
2022-08-09T22:04:33.575Z,22.35
2022-08-09T22:07:10.389Z,22.35
2022-08-09T22:09:40.872Z,22.31
2022-08-09T22:12:18.112Z,22.25
2022-08-09T22:14:46.017Z,22.19
2022-08-09T22:17:13.051Z,22.14
2022-08-09T22:19:58.634Z,21.80
2022-08-09T22:22:26.941Z,21.93
2022-08-09T22:26:05.420Z,21.84
2022-08-09T22:27:40.502Z,21.82
2022-08-09T22:30:09.464Z,21.72
2022-08-09T22:32:36.204Z,21.68
2022-08-09T22:35:06.140Z,21.38
2022-08-09T22:37:40.070Z,21.50
2022-08-09T22:40:08.625Z,21.10
2022-08-09T22:42:35.216Z,21.21
2022-08-09T22:48:12.975Z,21.20
2022-08-09T22:48:13.937Z,21.17
2022-08-09T22:50:35.296Z,21.05
2022-08-09T22:53:03.565Z,21.03
2022-08-09T22:56:06.524Z,20.80
2022-08-09T22:58:20.412Z,20.69
2022-08-09T23:00:59.136Z,20.59
2022-08-09T23:04:02.862Z,20.74
2022-08-09T23:06:14.172Z,20.75
2022-08-09T23:08:44.407Z,20.69
2022-08-09T23:11:16.007Z,20.54
2022-08-09T23:13:46.834Z,20.58
2022-08-09T23:16:14.907Z,20.58
2022-08-09T23:18:42.399Z,20.38
2022-08-09T23:21:09.994Z,20.47
2022-08-09T23:23:37.021Z,20.24
2022-08-09T23:26:05.686Z,20.29
2022-08-09T23:28:32.200Z,20.30
2022-08-09T23:30:58.703Z,20.18
2022-08-09T23:33:26.844Z,20.22
2022-08-09T23:36:05.874Z,20.09
2022-08-09T23:38:35.929Z,19.76
2022-08-09T23:41:29.103Z,19.99
2022-08-09T23:43:57.447Z,19.97
2022-08-09T23:46:23.969Z,19.97
2022-08-09T23:48:50.740Z,19.92
2022-08-09T23:51:17.648Z,19.88
2022-08-09T23:53:45.503Z,19.89
2022-08-09T23:56:13.855Z,19.75
2022-08-09T23:58:40.364Z,19.67
